Flight Track Log - Related Links

Times and Time Zones

All times are in EDT time to prevent confusion due to time zone crossing. See the UAL395 flight status page for this flight to view local times or setup timezone preferences in your user account.

Time Position Orientation Groundspeed Altitude Reporting Facility
EDT Latitude Longitude Course Direction KTS MPH feet Rate Location/Type
Sat 10:07:11 PM 29.9639 -95.3433 98° East 175 201 700  Level Houston Center
Sat 10:08:06 PM 29.9331 -95.3061 134° Southeast 197 227 2,100 1,982 Climbing Houston Center
Sat 10:09:00 PM 29.9223 -94.9233 97° East  Level FlightAware Approximate
Sat 10:09:00 PM 29.9000 -95.2614 130° Southeast 212 244 4,300  Level Houston Center
Sat 10:10:00 PM 29.9099 -94.7852 95° East  Level FlightAware Approximate
Sat 10:10:14 PM 29.8833 -95.1531 100° East 293 337 8,600  Level Houston Center
Sat 10:11:00 PM 29.8977 -94.6472 98° East  Level FlightAware Approximate
Sat 10:11:15 PM 29.8806 -95.0569 92° East 299 344 11,700  Level Houston Center
Sat 10:12:00 PM 29.8816 -94.5097 98° East  Level FlightAware Approximate
Sat 10:12:02 PM 29.8800 -94.9744 90° East 351 404 13,000  Level Houston Center
Sat 10:13:03 PM 29.8764 -94.8458 92° East 395 455 15,800 2,628 Climbing Houston Center
Sat 10:14:03 PM 29.8739 -94.7053 91° East 431 496 18,300 3,025 Climbing Houston Center
Sat 10:15:04 PM 29.8689 -94.5600 92° East 450 518 21,900 2,951 Climbing Houston Center
Sat 10:16:05 PM 29.8653 -94.4197 92° East 442 509 24,300 2,231 Climbing Houston Center
Sat 10:17:05 PM 29.8617 -94.2708 92° East 466 536 26,400 2,083 Climbing Houston Center
Sat 10:18:06 PM 29.8564 -94.1244 92° East 461 531 28,500 1,574 Climbing Houston Center
Sat 10:19:07 PM 29.8589 -93.9847 89° East 446 513 29,600 1,041 Climbing Houston Center
Sat 10:20:07 PM 29.8756 -93.8389 82° East 455 524 30,600 1,091 Climbing Houston Center
Sat 10:21:08 PM 29.8911 -93.6892 83° East 470 541 31,800 984 Climbing Houston Center
Sat 10:22:09 PM 29.9064 -93.5417 83° East 468 539 32,600 1,041 Climbing Houston Center
Sat 10:23:09 PM 29.9239 -93.3589 84° East 482 555 33,900 1,289 Climbing Houston Center
Sat 10:24:10 PM 29.9400 -93.2078 83° East 480 552 35,200 934 Climbing Houston Center
Sat 10:25:11 PM 29.9547 -93.0586 83° East 474 545 35,800 694 Climbing Houston Center
Sat 10:26:11 PM 29.9700 -92.9069 83° East 477 549 36,600 893 Climbing Houston Center
Sat 10:27:12 PM 29.9717 -92.7569 89° East 472 543 37,600 689 Climbing Houston Center
Sat 10:28:13 PM 29.9750 -92.6069 88° East 471 542 38,000 541 Climbing Houston Center
Sat 10:29:14 PM 29.9775 -92.4572 89° East 470 541 38,700 496 Climbing Houston Center
Sat 10:30:14 PM 29.9797 -92.3078 89° East 468 539 39,000 99 Climbing Houston Center
Sat 10:31:15 PM 29.9806 -92.1556 90° East 474 545 38,900 -49 Descending Houston Center
Sat 10:32:16 PM 29.9842 -92.0006 88° East 483 556 38,900  Level Houston Center
Sat 10:33:16 PM 29.9847 -91.8450 90° East 486 559 38,900  Level Houston Center
Sat 10:34:17 PM 29.9869 -91.6856 89° East 484 557 38,900  Level Houston Center
Sat 10:35:18 PM 29.9883 -91.5303 89° East 484 557 38,900  Level Houston Center
Sat 10:36:19 PM 29.9889 -91.3758 90° East 484 557 38,900 50 Level Houston Center
Sat 10:37:19 PM 29.9908 -91.2203 89° East 486 559 39,000 50 Climbing Houston Center
Sat 10:38:20 PM 29.9911 -91.0639 90° East 487 560 39,000  Level Houston Center
Sat 10:39:21 PM 29.9911 -90.8797 90° East 482 555 39,000 -50 Level Houston Center
Sat 10:40:21 PM 29.9917 -90.7269 90° East 479 551 38,900 -50 Descending Houston Center
Sat 10:41:22 PM 29.9911 -90.5717 90° East 483 556 38,900 49 Level Houston Center
Sat 10:42:23 PM 29.9917 -90.4178 90° East 484 557 39,000 50 Climbing Houston Center
Sat 10:43:23 PM 29.9911 -90.2644 90° East 483 556 39,000  Level Houston Center
Sat 10:44:24 PM 29.9900 -90.1117 90° East 479 551 39,000 -49 Level Houston Center
Sat 10:45:25 PM 29.9892 -89.9622 90° East 472 543 38,900 -49 Descending Houston Center
Sat 10:46:26 PM 29.9881 -89.8119 90° East 474 545 38,900  Level Houston Center
Sat 10:47:26 PM 29.9872 -89.6611 90° East 477 549 38,900  Level Houston Center
Sat 10:48:27 PM 29.9864 -89.5092 90° East 479 551 38,900  Level Houston Center
Sat 10:49:28 PM 29.9847 -89.3575 91° East 477 549 38,900 50 Level Houston Center
Sat 10:50:28 PM 29.9831 -89.1700 91° East 493 567 39,000 50 Climbing Houston Center
Sat 10:51:29 PM 29.9819 -89.0169 90° East 484 557 39,000 -49 Level Houston Center
Sat 10:52:30 PM 29.9789 -88.8669 91° East 474 545 38,900 -50 Descending Houston Center
Sat 10:53:30 PM 29.9775 -88.7197 91° East 464 534 38,900 50 Level Houston Center
Sat 10:54:31 PM 29.9744 -88.5733 91° East 463 533 39,000 49 Climbing Houston Center
Sat 10:55:32 PM 29.9728 -88.4278 91° East 459 528 39,000 -50 Level Houston Center
Sat 10:56:32 PM 29.9694 -88.2831 91° East 456 525 38,900 -50 Descending Houston Center
Sat 10:57:33 PM 29.9681 -88.1389 91° East 453 521 38,900 49 Level Houston Center
Sat 10:58:34 PM 29.9647 -87.9914 91° East 462 532 39,000 50 Climbing Houston Center
Sat 10:59:34 PM 29.9631 -87.8431 91° East 465 535 39,000  Level Houston Center
Sat 11:00:35 PM 29.9600 -87.6939 91° East 468 539 39,000  Level Houston Center
Sat 11:01:35 PM 29.9558 -87.5447 92° East 468 539 39,000  Level Houston Center
Sat 11:02:36 PM 29.9522 -87.3706 91° East 473 544 39,000  Level Houston Center
Sat 11:03:37 PM 29.9494 -87.2186 91° East 474 545 39,000 -50 Level Houston Center
Sat 11:04:37 PM 29.9456 -87.0700 92° East 469 540 38,900 -50 Descending Houston Center
Sat 11:05:38 PM 29.9394 -86.9214 93° East 465 535 38,900  Level Houston Center
Sat 11:06:38 PM 29.9369 -86.7731 91° East 464 534 38,900  Level Houston Center
Sat 11:07:54 PM 29.9097 -86.6039 100° East 454 522 38,900  Level Jacksonville Center
Sat 11:08:54 PM 29.8700 -86.4661 108° East 449 517 38,900  Level Jacksonville Center
Sat 11:09:54 PM 29.8300 -86.3281 108° East 449 517 38,900 50 Level Jacksonville Center
Sat 11:10:54 PM 29.7917 -86.1950 108° East 449 517 39,000  Climbing Jacksonville Center
Sat 11:11:54 PM 29.7553 -86.0622 107° East 449 517 38,900 -50 Descending Jacksonville Center
Sat 11:12:54 PM 29.7147 -85.9247 109° East 449 517 38,900  Level Jacksonville Center
Sat 11:13:54 PM 29.6761 -85.7919 108° East 449 517 38,900  Level Jacksonville Center
Sat 11:14:54 PM 29.6375 -85.6572 108° East 449 517 38,900 50 Level Jacksonville Center
Sat 11:15:54 PM 29.5986 -85.5200 108° East 449 517 39,000 50 Climbing Jacksonville Center
Sat 11:16:54 PM 29.5556 -85.3683 108° East 455 524 39,000  Level Jacksonville Center
Sat 11:17:54 PM 29.5164 -85.2361 109° East 445 512 39,000  Level Jacksonville Center
Sat 11:18:54 PM 29.4772 -85.0992 108° East 445 512 39,000 -50 Level Jacksonville Center
Sat 11:19:54 PM 29.4356 -84.9647 110° East 450 518 38,900 -50 Descending Jacksonville Center
Sat 11:20:54 PM 29.3981 -84.8281 107° East 450 518 38,900  Level Jacksonville Center
Sat 11:21:54 PM 29.3561 -84.6939 110° East 450 518 38,900  Level Jacksonville Center
Sat 11:22:54 PM 29.2953 -84.5689 119° Southeast 450 518 38,900 100 Level Jacksonville Center
Sat 11:23:54 PM 29.2342 -84.4489 120° Southeast 445 512 39,100 50 Climbing Jacksonville Center
Sat 11:24:54 PM 29.1708 -84.3242 120° Southeast 445 512 39,000 -50 Descending Jacksonville Center
Sat 11:25:54 PM 29.1011 -84.2117 125° Southeast 445 512 39,000  Level Jacksonville Center
Sat 11:26:54 PM 29.0269 -84.1014 128° Southeast 445 512 39,000  Level Jacksonville Center
Sat 11:27:54 PM 28.9550 -83.9936 127° Southeast 440 506 39,000 -50 Level Jacksonville Center
Sat 11:28:54 PM 28.8744 -83.8908 132° Southeast 435 501 38,900 -50 Descending Jacksonville Center
Sat 11:29:54 PM 28.7747 -83.8139 146° Southeast 429 494 38,900 30 Level Jacksonville Center
Sat 11:32:13 PM 28.5433 -83.6700 151° Southeast 426 490 39,000 30 Climbing Miami Center
Sat 11:33:13 PM 28.4283 -83.6344 165° South 436 502 39,000 50 Level Miami Center
Sat 11:34:12 PM 28.3239 -83.5506 145° Southeast 442 509 39,100 -50 Climbing Miami Center
Sat 11:35:13 PM 28.2256 -83.4694 144° Southeast 437 503 38,900 -98 Descending Miami Center
Sat 11:36:14 PM 28.1314 -83.3861 142° Southeast 437 503 38,900  Level Miami Center
Sat 11:37:14 PM 28.0347 -83.3078 144° Southeast 437 503 38,900  Level Miami Center
Sat 11:38:12 PM 27.9361 -83.2269 144° Southeast 437 503 38,900 51 Level Miami Center
Sat 11:39:12 PM 27.8333 -83.1461 145° Southeast 442 509 39,000 50 Climbing Miami Center
Sat 11:40:12 PM 27.7369 -83.0611 142° Southeast 442 509 39,000 -300 Level Miami Center
Sat 11:41:12 PM 27.6381 -82.9833 145° Southeast 442 509 38,400 -750 Descending Miami Center
Sat 11:42:12 PM 27.5394 -82.9006 143° Southeast 442 509 37,500 -950 Descending Miami Center
Sat 11:43:12 PM 27.4286 -82.8083 144° Southeast 447 514 36,500 -942 Descending Miami Center
Sat 11:44:13 PM 27.3297 -82.7261 144° Southeast 459 528 35,600 -942 Descending Miami Center
Sat 11:45:13 PM 27.2344 -82.6514 145° Southeast 455 524 34,600 -992 Descending Miami Center
Sat 11:46:14 PM 27.1336 -82.5692 144° Southeast 455 524 33,600 -934 Descending Miami Center
Sat 11:47:15 PM 27.0283 -82.4825 144° Southeast 455 524 32,700 -966 Descending Miami Center
Sat 11:48:12 PM 26.9292 -82.4008 144° Southeast 463 533 31,700 -1,271 Descending Miami Center
Sat 11:49:13 PM 26.8478 -82.2925 130° Southeast 458 527 30,200 -1,672 Descending Miami Center
Sat 11:50:14 PM 26.7703 -82.1842 129° Southeast 445 512 28,300 -1,966 Descending Miami Center
Sat 11:51:12 PM 26.6950 -82.0739 127° Southeast 445 512 26,300 -1,932 Descending Miami Center
Sat 11:52:12 PM 26.6194 -81.9731 130° Southeast 440 506 24,500 -1,800 Descending Miami Center
Sat 11:53:12 PM 26.5478 -81.8700 128° Southeast 433 498 22,700 -1,820 Descending Miami Center
Sat 11:54:14 PM 26.4722 -81.7600 127° Southeast 416 479 20,800 -1,785 Descending Miami Center
Sat 11:55:13 PM 26.4022 -81.6644 129° Southeast 409 471 19,100 -1,627 Descending Miami Center
Sat 11:56:12 PM 26.3344 -81.5714 129° Southeast 404 465 17,600 -1,563 Descending Miami Center
Sat 11:57:12 PM 26.2664 -81.4783 129° Southeast 393 452 16,000 -1,563 Descending Miami Center
Sat 11:58:11 PM 26.2022 -81.3903 129° Southeast 377 434 14,500 -1,500 Descending Miami Center
Sat 11:59:12 PM 26.1381 -81.3022 129° Southeast 372 428 13,000 -1,438 Descending Miami Center
Sun 12:00:12 AM 26.0739 -81.2142 129° Southeast 367 422 11,600 -1,222 Descending Miami Center
Sun 12:01:00 AM 26.0236 -81.1547 133° Southeast 360 414 10,800 -864 Descending Miami Center
Sun 12:02:10 AM 25.9492 -81.0528 129° Southeast 345 397 9,900 -429 Descending Miami Center
Sun 12:03:06 AM 25.9008 -80.9886 130° Southeast 284 327 9,900  Level Miami Center
Sun 12:04:05 AM 25.8678 -80.9089 115° Southeast 285 328 9,900 -634 Level Miami Center
Sun 12:05:09 AM 25.8492 -80.8231 104° East 282 325 8,600 -1,359 Descending Miami Center
Sun 12:06:13 AM 25.8328 -80.7278 101° East 277 319 7,000 -1,512 Descending Miami Center
Sun 12:07:12 AM 25.8161 -80.6464 103° East 277 319 5,500 -1,373 Descending Miami Center
Sun 12:08:11 AM 25.7994 -80.5697 104° East 266 306 4,300 -1,160 Descending Miami Center
Sun 12:09:11 AM 25.7803 -80.4978 106° East 254 292 3,200 -1,150 Descending Miami Center
Sun 12:10:11 AM 25.7775 -80.4353 93° East 212 244 2,000 -1,000 Descending Miami Center
Sun 12:11:17 AM 25.7789 -80.3825 88° East 147 169 1,100 -703 Descending Miami Center
Sun 12:12:19 AM 25.7819 -80.3433 85° East 115 132 500 -581 Descending Miami Center

Login

Don't have an account? Register now (free) for customized features, flight alerts, and more!